RPLL/MNL METAR and TAF weather

Enter ICAO airport designator
Station Type Date Time Source
RPLL METAR 2020/12/06 01:00 UTC NOAA

RPLL 060100Z VRB02KT 9999 BKN018 29/25 Q1011 NOSIG RMK A2985


Station Type Date Time Source
RPLL Decoded METAR 2020/12/06 01:00 UTC NOAA

Ninoy Aquino Inter-National Airport, Philippines (RPLL) 14-31N 121-00E 15M
Dec 05, 2020 - 08:00 PM EST / 2020.12.06 0100 UTC
Wind: Variable at 2 MPH (2 KT):0
Visibility: greater than 7 mile(s):0
Sky conditions: mostly cloudy
Temperature: 84 F (29 C)
Dew Point: 77 F (25 C)
Relative Humidity: 79%
Pressure (altimeter): 29.85 in. Hg (1011 hPa)
ob: RPLL 060100Z VRB02KT 9999 BKN018 29/25 Q1011 NOSIG RMK A2985
cycle: 1

Station Type Date Time Source
RPLL TAF 2020/12/05 18:59 UTC NOAA

TAF RPLL 051700Z 0518/0624 12007KT 9999 FEW025 SCT100 TX32/0606Z TN26/0522Z
TEMPO 0518/0524 VRB02KT FEW023 BKN100
TEMPO 0603/0609 12013KT FEW023 BKN100

Example: see airport list